Time;durP1;ratioP1;P1;durP2;ratioP2;P2;SDS_P1;SDS_P2;PMS_P1;PMS_P2;Temp;Humidity;BMP_temperature;BMP_pressure;BME280_temperature;BME280_humidity;BME280_pressure;Samples;Min_cycle;Max_cycle;Signal;HPM_P1;HPM_P2
2023/01/12 00:02:05;;;;;;;2.55;1.55;;;;;;;20.70;40.55;100582.47;5030276;28;20030;-69
2023/01/12 00:04:30;;;;;;;2.60;1.40;;;;;;;20.69;40.62;100581.63;5024056;28;20156;-71
2023/01/12 00:06:57;;;;;;;3.53;1.73;;;;;;;20.69;40.73;100575.53;5031616;28;20632;-72
2023/01/12 00:09:23;;;;;;;3.72;1.58;;;;;;;20.66;40.69;100581.22;5031825;28;20044;-71
2023/01/12 00:11:48;;;;;;;3.63;1.20;;;;;;;20.66;40.56;100571.44;5028539;28;20037;-71
2023/01/12 00:14:15;;;;;;;4.00;1.50;;;;;;;20.60;40.65;100571.38;5030556;28;20040;-71
2023/01/12 00:16:40;;;;;;;3.35;1.40;;;;;;;20.61;40.82;100573.81;5025842;28;20753;-71
2023/01/12 00:19:10;;;;;;;2.88;1.23;;;;;;;20.66;40.85;100574.09;5026687;28;20038;-71
2023/01/12 00:24:37;;;;;;;4.80;1.70;;;;;;;20.62;40.87;100574.63;5029156;28;20452;-71
2023/01/12 00:27:11;;;;;;;4.22;1.65;;;;;;;20.60;40.90;100569.53;5029744;28;20483;-71
2023/01/12 00:29:37;;;;;;;4.00;1.65;;;;;;;20.60;40.55;100556.31;5046404;28;20040;-71
2023/01/12 00:32:04;;;;;;;4.90;1.63;;;;;;;20.56;41.01;100572.75;5029546;28;20463;-72
2023/01/12 00:34:29;;;;;;;4.55;1.33;;;;;;;20.62;40.85;100567.50;5029992;28;20057;-71
2023/01/12 00:36:55;;;;;;;3.33;1.30;;;;;;;20.62;40.83;100553.47;5035943;28;20036;-71
2023/01/12 00:39:21;;;;;;;3.50;1.58;;;;;;;20.51;40.94;100546.88;5035511;28;20060;-71
2023/01/12 00:47:15;;;;;;;2.22;1.05;;;;;;;20.52;40.82;100549.34;5038396;28;20113;-71
2023/01/12 00:49:41;;;;;;;3.10;1.50;;;;;;;20.61;40.94;100554.47;5032634;28;20379;-71
2023/01/12 00:52:10;;;;;;;3.28;1.38;;;;;;;20.52;41.03;100544.06;5031104;28;20419;-71
2023/01/12 00:54:35;;;;;;;5.65;1.73;;;;;;;20.46;41.19;100542.16;5028906;28;20059;-71
2023/01/12 00:57:02;;;;;;;4.00;1.75;;;;;;;20.46;41.18;100536.03;5033030;28;20063;-71
2023/01/12 00:59:28;;;;;;;4.15;1.35;;;;;;;20.51;40.92;100541.59;5040098;28;20024;-71
2023/01/12 01:01:54;;;;;;;3.95;1.48;;;;;;;20.50;41.02;100551.38;5032753;28;20391;-70
2023/01/12 01:04:19;;;;;;;4.50;1.52;;;;;;;20.46;41.04;100543.97;5027464;28;20037;-71
2023/01/12 01:06:45;;;;;;;4.40;1.90;;;;;;;20.47;41.06;100543.00;5030599;28;20049;-70
2023/01/12 01:09:10;;;;;;;3.05;1.17;;;;;;;20.47;40.98;100545.63;5027439;28;20036;-71
2023/01/12 01:11:36;;;;;;;5.55;1.58;;;;;;;20.46;41.07;100547.44;5030199;28;20033;-71
2023/01/12 01:14:02;;;;;;;3.25;1.45;;;;;;;20.42;41.17;100540.91;5029679;28;20044;-71
2023/01/12 01:16:28;;;;;;;5.50;1.55;;;;;;;20.44;41.05;100530.13;5032132;28;20506;-71
2023/01/12 01:18:55;;;;;;;4.68;2.00;;;;;;;20.47;41.09;100537.72;5030855;28;20056;-71
2023/01/12 01:21:21;;;;;;;4.45;1.50;;;;;;;20.47;41.12;100538.53;5027454;28;20045;-71
2023/01/12 01:23:46;;;;;;;2.17;1.45;;;;;;;20.48;40.93;100532.22;5035073;28;20700;-71
2023/01/12 01:26:16;;;;;;;3.33;1.38;;;;;;;20.36;41.25;100528.41;5031207;28;20041;-71
2023/01/12 01:28:42;;;;;;;3.33;1.40;;;;;;;20.47;40.90;100549.09;5034765;28;20047;-71
2023/01/12 01:31:19;;;;;;;3.55;1.70;;;;;;;20.38;41.08;100539.63;5039613;28;20041;-70
2023/01/12 01:33:46;;;;;;;4.65;1.63;;;;;;;20.38;41.24;100530.88;5027898;28;20057;-71
2023/01/12 01:36:12;;;;;;;2.90;1.48;;;;;;;20.28;41.37;100528.53;5025415;28;20506;-71
2023/01/12 01:38:38;;;;;;;2.97;1.30;;;;;;;20.32;41.38;100529.81;5036966;28;20041;-71
2023/01/12 01:41:06;;;;;;;3.00;1.63;;;;;;;20.34;41.22;100524.34;5024420;28;20037;-71
2023/01/12 01:43:52;;;;;;;3.63;1.52;;;;;;;20.41;41.15;100530.50;5031268;28;20041;-71
2023/01/12 01:46:28;;;;;;;4.80;2.08;;;;;;;20.36;41.17;100520.47;5033304;28;20040;-71
2023/01/12 01:48:55;;;;;;;3.78;1.50;;;;;;;20.30;41.22;100521.25;5035883;28;20045;-71
2023/01/12 01:51:21;;;;;;;4.03;1.65;;;;;;;20.43;41.05;100518.72;5031954;28;20045;-71
2023/01/12 01:53:48;;;;;;;2.83;1.30;;;;;;;20.35;41.05;100518.84;5033917;28;20544;-70
2023/01/12 01:56:22;;;;;;;3.60;1.55;;;;;;;20.31;41.36;100519.44;5034428;28;20033;-70
2023/01/12 01:58:58;;;;;;;4.28;2.30;;;;;;;20.29;41.29;100498.47;5034367;28;20046;-70
2023/01/12 02:01:24;;;;;;;3.72;1.60;;;;;;;20.25;41.18;100497.19;5023971;28;20037;-70
2023/01/12 02:03:53;;;;;;;6.82;1.65;;;;;;;20.38;41.11;100496.50;5036788;28;20032;-70
2023/01/12 02:06:22;;;;;;;2.65;1.40;;;;;;;20.36;40.96;100490.56;5038047;28;20044;-70
2023/01/12 02:08:54;;;;;;;3.22;1.45;;;;;;;20.35;41.14;100492.41;5029822;28;20077;-71
2023/01/12 02:16:58;;;;;;;3.58;1.65;;;;;;;20.36;41.16;100475.53;5030730;28;20411;-70
2023/01/12 02:19:32;;;;;;;4.28;1.85;;;;;;;20.27;41.34;100478.47;5031566;28;20564;-70
2023/01/12 02:22:07;;;;;;;3.75;1.60;;;;;;;20.36;41.12;100466.78;5031366;28;20037;-70
2023/01/12 02:24:53;;;;;;;6.03;1.52;;;;;;;20.28;41.25;100461.63;5035123;28;20052;-70
2023/01/12 02:27:21;;;;;;;3.22;1.33;;;;;;;20.29;41.16;100457.94;5037419;28;20517;-70
2023/01/12 02:30:02;;;;;;;2.72;1.58;;;;;;;20.36;41.16;100459.66;5037486;28;20025;-70
2023/01/12 02:32:37;;;;;;;3.80;1.55;;;;;;;20.32;41.25;100447.84;4984981;28;1116689;-70
2023/01/12 02:35:33;;;;;;;2.33;1.20;;;;;;;20.29;41.29;100445.59;5031159;28;20060;-70
2023/01/12 02:38:34;;;;;;;4.68;1.63;;;;;;;20.29;41.37;100435.00;5013495;28;20053;-70
2023/01/12 02:41:03;;;;;;;4.75;1.92;;;;;;;20.31;41.10;100437.44;5037178;28;20048;-70
2023/01/12 02:43:30;;;;;;;3.85;1.60;;;;;;;20.29;41.24;100426.22;5033871;28;20633;-70
2023/01/12 02:46:10;;;;;;;4.97;1.80;;;;;;;20.27;41.26;100429.06;5035156;28;20048;-70
2023/01/12 02:48:46;;;;;;;4.00;1.80;;;;;;;20.29;41.10;100420.94;5037357;28;20036;-70
2023/01/12 02:51:36;;;;;;;3.78;1.75;;;;;;;20.27;41.32;100409.75;5033666;28;20095;-70
2023/01/12 02:54:07;;;;;;;3.90;1.85;;;;;;;20.27;41.30;100407.09;5034824;28;20121;-70
2023/01/12 02:56:54;;;;;;;4.63;2.28;;;;;;;20.18;41.49;100396.69;5032475;28;20034;-70
2023/01/12 02:59:31;;;;;;;4.15;1.70;;;;;;;20.25;41.50;100396.72;5034866;28;20041;-70
2023/01/12 03:02:05;;;;;;;4.32;1.50;;;;;;;20.20;41.44;100385.91;5030158;28;20259;-70
2023/01/12 03:04:31;;;;;;;3.78;1.67;;;;;;;20.25;41.41;100380.03;5030509;28;20061;-70
2023/01/12 03:06:56;;;;;;;3.00;1.70;;;;;;;20.33;41.18;100382.56;5035495;28;20060;-70
2023/01/12 03:09:35;;;;;;;3.50;1.77;;;;;;;20.30;41.30;100373.19;5028602;28;20047;-70
2023/01/12 03:12:05;;;;;;;5.47;2.17;;;;;;;20.24;41.41;100379.22;5030791;28;20052;-71
2023/01/12 03:14:34;;;;;;;6.30;1.85;;;;;;;20.26;41.32;100368.44;5036001;28;20036;-70
2023/01/12 03:17:05;;;;;;;3.78;1.83;;;;;;;20.22;41.47;100352.16;5027689;28;20087;-70
2023/01/12 03:19:32;;;;;;;2.13;1.30;;;;;;;20.25;41.42;100356.25;5042047;28;20566;-70
2023/01/12 03:22:09;;;;;;;4.30;1.45;;;;;;;20.29;41.38;100355.69;5029640;28;20045;-70
2023/01/12 03:24:38;;;;;;;3.55;1.75;;;;;;;20.18;41.50;100341.16;5037966;28;20043;-71
2023/01/12 03:27:11;;;;;;;5.85;1.67;;;;;;;20.29;41.30;100337.19;5035654;28;20036;-70
2023/01/12 03:29:44;;;;;;;3.45;1.40;;;;;;;20.19;41.37;100324.28;5035205;28;20040;-70
2023/01/12 03:32:09;;;;;;;2.47;1.38;;;;;;;20.23;41.46;100322.88;5038711;28;20155;-70
2023/01/12 03:34:36;;;;;;;3.30;1.50;;;;;;;20.18;41.51;100319.19;5030847;28;21587;-70
2023/01/12 03:37:22;;;;;;;4.75;1.83;;;;;;;20.22;41.33;100320.44;5032392;28;20053;-70
2023/01/12 03:40:22;;;;;;;3.75;1.42;;;;;;;20.22;41.42;100315.97;5032588;28;20044;-70
2023/01/12 03:43:07;;;;;;;3.08;1.50;;;;;;;20.22;41.55;100299.28;5028291;28;20097;-70
2023/01/12 03:45:44;;;;;;;5.03;1.70;;;;;;;20.26;41.41;100283.84;5030046;28;20049;-70
2023/01/12 03:48:39;;;;;;;2.83;1.15;;;;;;;20.19;41.56;100292.56;5032228;28;20384;-70
2023/01/12 03:51:13;;;;;;;3.65;1.67;;;;;;;20.09;41.59;100285.97;5023430;28;20045;-70
2023/01/12 03:53:40;;;;;;;3.25;1.65;;;;;;;20.24;41.59;100294.63;5020161;28;20120;-71
2023/01/12 03:56:08;;;;;;;3.63;1.70;;;;;;;20.20;41.50;100277.50;5025979;28;20112;-70
2023/01/12 03:58:35;;;;;;;2.35;1.33;;;;;;;20.21;41.59;100273.84;5031547;28;20132;-70
2023/01/12 04:01:01;;;;;;;3.88;1.45;;;;;;;20.15;41.57;100272.00;5034329;28;20398;-70
2023/01/12 04:03:27;;;;;;;3.63;1.73;;;;;;;20.13;41.55;100263.47;5031601;28;20065;-70
2023/01/12 04:05:52;;;;;;;3.50;1.85;;;;;;;20.14;41.63;100270.38;5027042;28;20534;-70
2023/01/12 04:08:18;;;;;;;3.95;1.45;;;;;;;20.13;41.76;100259.00;5027831;28;20506;-71
2023/01/12 04:10:44;;;;;;;4.25;1.60;;;;;;;20.17;41.54;100254.94;5025659;28;20071;-71
2023/01/12 04:13:10;;;;;;;4.80;1.75;;;;;;;20.17;41.59;100240.91;5027569;28;20072;-70
2023/01/12 04:15:37;;;;;;;3.20;1.50;;;;;;;20.25;41.47;100237.25;5029277;28;20035;-70
2023/01/12 04:18:05;;;;;;;2.95;1.67;;;;;;;20.19;41.58;100236.22;5033638;28;20045;-70
2023/01/12 04:20:31;;;;;;;4.90;1.58;;;;;;;20.23;41.50;100226.88;5028895;28;20045;-70
2023/01/12 04:22:57;;;;;;;4.15;1.35;;;;;;;20.16;41.58;100221.59;5030931;28;20097;-70
2023/01/12 04:25:23;;;;;;;4.57;1.85;;;;;;;20.16;41.64;100215.47;5029931;28;20040;-70
2023/01/12 04:28:02;;;;;;;3.97;1.67;;;;;;;20.22;41.52;100207.56;5034363;28;20083;-70
2023/01/12 04:30:29;;;;;;;2.80;1.40;;;;;;;20.22;41.50;100206.75;5031921;28;20042;-70
2023/01/12 04:32:56;;;;;;;3.90;1.70;;;;;;;20.19;41.59;100192.09;5034871;28;20056;-70
2023/01/12 04:35:23;;;;;;;5.60;1.70;;;;;;;20.11;41.69;100197.56;5025290;28;20033;-70
2023/01/12 04:37:49;;;;;;;3.97;1.50;;;;;;;20.13;41.69;100182.34;5023612;28;20048;-70
2023/01/12 04:40:16;;;;;;;3.92;1.40;;;;;;;20.13;41.75;100181.50;5031875;28;20044;-70
2023/01/12 04:43:06;;;;;;;2.47;1.35;;;;;;;20.20;41.53;100180.50;5023297;28;20037;-70
2023/01/12 04:45:34;;;;;;;2.88;1.42;;;;;;;20.19;41.67;100176.25;5024593;28;20041;-70
2023/01/12 04:48:04;;;;;;;3.85;1.63;;;;;;;20.16;41.66;100181.94;5026181;28;20044;-70
2023/01/12 04:50:30;;;;;;;1.90;1.02;;;;;;;20.12;41.72;100177.25;5038302;28;20040;-70
2023/01/12 04:52:56;;;;;;;4.63;1.50;;;;;;;20.09;41.63;100140.59;5039242;28;20030;-70
2023/01/12 04:55:22;;;;;;;3.78;1.23;;;;;;;20.13;41.75;100139.22;5045334;28;20032;-70
2023/01/12 04:57:47;;;;;;;1.95;1.20;;;;;;;20.12;41.88;100127.84;5039721;28;20070;-70
2023/01/12 05:00:13;;;;;;;2.42;1.05;;;;;;;20.11;41.85;100128.84;5038200;28;20511;-70
2023/01/12 05:02:38;;;;;;;4.32;1.48;;;;;;;20.09;41.81;100116.81;5025879;28;20037;-70
2023/01/12 05:05:04;;;;;;;4.28;1.45;;;;;;;20.13;41.71;100096.94;5035334;28;20068;-71
2023/01/12 05:07:30;;;;;;;4.45;1.88;;;;;;;20.11;41.85;100091.03;5040231;28;20041;-70
2023/01/12 05:12:39;;;;;;;1.50;1.10;;;;;;;20.14;41.64;100077.41;5040244;28;20136;-70
2023/01/12 05:15:06;;;;;;;3.22;1.13;;;;;;;20.11;41.65;100036.34;5042224;28;20037;-70
2023/01/12 05:17:31;;;;;;;3.22;1.45;;;;;;;20.12;41.78;100000.97;5046964;28;20034;-70
2023/01/12 05:19:57;;;;;;;3.05;1.25;;;;;;;20.11;41.73;99986.13;5037781;28;20487;-70
2023/01/12 05:22:22;;;;;;;2.88;1.23;;;;;;;20.11;41.80;99983.47;5039787;28;20036;-70
2023/01/12 05:24:48;;;;;;;3.25;1.33;;;;;;;20.12;41.73;99971.88;5039313;28;20045;-70
2023/01/12 05:27:13;;;;;;;1.88;1.23;;;;;;;20.16;42.05;99977.56;5043188;28;20041;-70
2023/01/12 05:29:39;;;;;;;2.53;1.25;;;;;;;20.14;41.75;99961.91;5038958;28;20324;-70
2023/01/12 05:32:04;;;;;;;2.08;1.30;;;;;;;20.08;41.75;99953.97;5040807;28;20092;-70
2023/01/12 05:34:30;;;;;;;2.58;1.40;;;;;;;20.11;41.73;99941.19;5044032;28;20037;-70
2023/01/12 05:36:55;;;;;;;4.07;1.55;;;;;;;20.15;41.69;99941.59;5035303;28;20037;-70
2023/01/12 05:39:21;;;;;;;2.92;1.42;;;;;;;20.15;41.54;99944.22;5038265;28;20041;-70
2023/01/12 05:44:31;;;;;;;2.30;1.13;;;;;;;20.05;41.71;99922.66;5046607;28;20048;-70
2023/01/12 05:46:56;;;;;;;3.60;1.27;;;;;;;20.12;41.66;99924.31;5044407;28;20032;-70
2023/01/12 05:49:22;;;;;;;2.95;1.30;;;;;;;20.06;41.84;99909.25;5030826;28;20529;-71
2023/01/12 05:51:47;;;;;;;2.58;1.02;;;;;;;20.10;41.76;99909.66;5032708;28;20074;-70
2023/01/12 05:54:13;;;;;;;2.05;1.00;;;;;;;20.11;41.72;99901.53;5029726;28;20052;-70
2023/01/12 05:56:38;;;;;;;2.10;0.90;;;;;;;20.00;41.87;99910.06;5030455;28;20037;-70
2023/01/12 05:59:04;;;;;;;2.92;1.35;;;;;;;20.09;41.76;99902.72;5028177;28;20053;-70
2023/01/12 06:01:31;;;;;;;2.10;1.20;;;;;;;20.01;42.09;99900.31;5023763;28;20127;-70
2023/01/12 06:03:59;;;;;;;2.40;1.13;;;;;;;19.95;42.00;99899.31;5037124;28;20048;-70
2023/01/12 06:06:26;;;;;;;1.88;0.93;;;;;;;20.02;41.71;99865.75;5031092;28;20071;-70
2023/01/12 06:08:53;;;;;;;3.10;1.58;;;;;;;19.97;41.90;99875.31;5031044;28;20454;-70
2023/01/12 06:14:04;;;;;;;3.35;1.10;;;;;;;19.92;42.04;99887.28;5033791;28;20068;-70
2023/01/12 06:16:30;;;;;;;2.58;1.23;;;;;;;19.94;41.68;99873.09;5027520;28;20040;-70
2023/01/12 06:18:56;;;;;;;2.13;1.17;;;;;;;19.96;41.91;99874.50;5029272;28;20056;-70
2023/01/12 06:21:22;;;;;;;1.45;1.05;;;;;;;19.98;41.85;99880.38;5034533;28;20050;-70
2023/01/12 06:23:47;;;;;;;2.20;1.10;;;;;;;19.95;42.03;99872.88;5035845;28;20556;-70
2023/01/12 06:26:13;;;;;;;1.92;1.30;;;;;;;19.96;41.97;99873.69;5036874;28;20040;-70
2023/01/12 06:28:39;;;;;;;1.15;0.90;;;;;;;19.97;42.06;99904.38;5013654;28;20470;-70
2023/01/12 06:31:08;;;;;;;1.27;0.80;;;;;;;20.00;41.85;99914.53;5041196;28;20083;-70
2023/01/12 06:33:35;;;;;;;2.50;1.10;;;;;;;20.00;41.82;99904.78;5039182;28;20064;-70
2023/01/12 06:36:00;;;;;;;2.33;1.20;;;;;;;19.93;42.01;99898.69;5032424;28;20037;-70
2023/01/12 06:38:28;;;;;;;2.05;1.10;;;;;;;19.97;41.92;99899.09;5030149;28;20035;-70
2023/01/12 06:40:56;;;;;;;2.05;1.02;;;;;;;19.95;41.87;99891.38;5035318;28;20395;-69
2023/01/12 06:43:22;;;;;;;2.33;0.70;;;;;;;19.98;41.93;99888.31;5033959;28;20049;-70
2023/01/12 06:45:51;;;;;;;2.47;0.90;;;;;;;19.95;41.90;99878.16;5029796;28;20114;-70
2023/01/12 06:48:22;;;;;;;1.65;0.90;;;;;;;20.01;41.87;99893.19;5037691;28;20231;-70
2023/01/12 06:50:48;;;;;;;3.33;1.40;;;;;;;19.99;42.01;99883.84;5029803;28;20043;-70
2023/01/12 06:53:13;;;;;;;1.63;1.23;;;;;;;19.99;42.00;99879.38;5030969;28;20034;-70
2023/01/12 06:55:39;;;;;;;1.67;1.05;;;;;;;20.05;41.88;99881.19;5032038;28;20041;-70
2023/01/12 06:58:04;;;;;;;1.95;0.90;;;;;;;19.98;42.13;99885.69;5034965;28;20040;-71
2023/01/12 07:00:30;;;;;;;1.20;0.95;;;;;;;20.02;41.94;99862.28;5025256;28;20056;-70
2023/01/12 07:02:56;;;;;;;1.65;0.80;;;;;;;20.01;42.17;99877.34;5035177;28;20481;-70
2023/01/12 07:05:22;;;;;;;1.48;1.00;;;;;;;20.06;41.97;99890.75;5032808;28;20041;-71
2023/01/12 07:07:48;;;;;;;1.50;1.05;;;;;;;20.07;41.90;99884.44;5030788;28;20077;-70
2023/01/12 07:10:14;;;;;;;2.05;1.00;;;;;;;20.09;41.90;99879.75;5026879;28;20044;-70
2023/01/12 07:12:39;;;;;;;2.63;0.90;;;;;;;20.12;41.92;99883.84;5032228;28;20044;-70
2023/01/12 07:15:06;;;;;;;1.70;0.60;;;;;;;20.30;41.59;99889.31;5031472;28;20068;-70
2023/01/12 07:17:31;;;;;;;0.90;0.63;;;;;;;21.70;38.99;99885.94;5026336;28;20076;-70
2023/01/12 07:19:57;;;;;;;0.98;0.70;;;;;;;22.36;37.34;99884.63;5026018;28;21671;-70
2023/01/12 07:22:22;;;;;;;1.23;0.80;;;;;;;22.55;37.27;99888.13;5024394;28;20376;-70
2023/01/12 07:24:48;;;;;;;1.38;0.70;;;;;;;22.56;37.26;99893.22;5027890;28;20060;-70
2023/01/12 07:27:14;;;;;;;1.52;0.52;;;;;;;22.74;37.05;99892.41;5030114;28;20037;-70
2023/01/12 07:29:39;;;;;;;1.35;0.70;;;;;;;22.98;36.58;99893.41;5026152;28;20037;-70
2023/01/12 07:32:05;;;;;;;2.00;0.70;;;;;;;23.02;36.69;99894.56;5019254;28;20128;-69
2023/01/12 07:34:30;;;;;;;2.08;0.70;;;;;;;22.91;36.85;99913.91;5026750;28;20037;-70
2023/01/12 07:36:56;;;;;;;0.68;0.40;;;;;;;22.74;37.31;99895.06;5027204;28;20769;-70
2023/01/12 07:39:22;;;;;;;2.17;0.80;;;;;;;22.66;37.60;99913.13;5024675;28;20036;-69
2023/01/12 07:44:33;;;;;;;0.98;0.70;;;;;;;22.52;37.46;99904.50;5046435;28;20052;-69
2023/01/12 07:46:59;;;;;;;0.85;0.70;;;;;;;22.49;38.03;99896.97;5025994;28;20188;-69
2023/01/12 07:49:25;;;;;;;1.65;0.50;;;;;;;22.31;37.85;99890.59;5027582;28;20062;-69
2023/01/12 07:51:54;;;;;;;1.40;0.85;;;;;;;22.32;38.27;99896.72;5024806;28;20377;-69
2023/01/12 07:54:21;;;;;;;2.47;0.80;;;;;;;22.19;38.34;99902.94;5023635;28;20131;-70
2023/01/12 07:56:47;;;;;;;1.33;0.57;;;;;;;22.17;38.31;99912.97;5026668;28;20060;-69
2023/01/12 07:59:13;;;;;;;0.82;0.50;;;;;;;22.15;38.46;99901.75;5025880;28;20041;-70
2023/01/12 08:01:39;;;;;;;1.00;0.90;;;;;;;22.08;38.47;99916.09;5027314;28;20651;-70
2023/01/12 08:04:06;;;;;;;1.25;0.50;;;;;;;22.03;38.67;99914.88;5026378;28;20090;-69
2023/01/12 08:06:33;;;;;;;1.23;0.38;;;;;;;22.01;38.56;99922.22;5026784;28;20075;-70
2023/01/12 08:08:58;;;;;;;1.55;0.65;;;;;;;22.01;38.61;99932.03;5036332;28;20064;-70
2023/01/12 08:11:24;;;;;;;1.38;0.65;;;;;;;21.94;39.19;99923.31;5039030;28;20138;-70
2023/01/12 08:13:53;;;;;;;1.58;0.63;;;;;;;21.83;38.99;99924.81;5035597;28;20209;-70
2023/01/12 08:16:28;;;;;;;3.00;1.05;;;;;;;21.80;39.27;99937.69;5037350;28;20036;-70
2023/01/12 08:19:25;;;;;;;2.28;0.95;;;;;;;21.66;39.53;99945.72;5042656;28;20037;-70
2023/01/12 08:21:57;;;;;;;1.63;0.68;;;;;;;21.47;39.82;99935.22;5019170;28;20045;-69
2023/01/12 08:24:31;;;;;;;1.17;0.50;;;;;;;21.21;40.27;99938.78;5027948;28;20051;-70
2023/01/12 08:27:00;;;;;;;1.17;0.70;;;;;;;21.17;40.32;99938.38;5041327;28;20044;-70
2023/01/12 08:29:31;;;;;;;0.95;0.60;;;;;;;21.17;40.37;99942.84;5034061;28;20472;-70
2023/01/12 08:32:05;;;;;;;1.48;0.70;;;;;;;21.08;40.89;99952.88;5032848;28;20045;-70
2023/01/12 08:34:32;;;;;;;1.23;0.80;;;;;;;21.03;41.03;99952.69;5043649;28;20067;-69
2023/01/12 08:37:00;;;;;;;1.92;0.50;;;;;;;21.03;40.96;99950.88;5034133;28;20473;-70
2023/01/12 08:39:28;;;;;;;1.38;0.80;;;;;;;21.00;40.96;99945.16;5029421;28;20041;-70
2023/01/12 08:41:53;;;;;;;2.50;0.93;;;;;;;20.96;41.14;99959.81;5029841;28;20052;-70
2023/01/12 08:44:20;;;;;;;2.10;0.70;;;;;;;20.92;41.14;99964.72;5037553;28;20490;-69
2023/01/12 08:46:48;;;;;;;1.95;1.00;;;;;;;20.87;41.35;99972.47;5029916;28;20044;-70
2023/01/12 08:49:15;;;;;;;1.92;0.57;;;;;;;20.92;40.92;99969.22;5038118;28;20063;-70
2023/01/12 08:51:41;;;;;;;10.65;1.95;;;;;;;21.29;40.39;99965.84;5043997;28;20079;-78
2023/01/12 08:54:09;;;;;;;5.05;1.70;;;;;;;20.99;41.50;99973.44;5033849;28;20029;-74
2023/01/12 08:56:35;;;;;;;4.18;1.67;;;;;;;20.94;41.51;99969.81;5041214;28;20048;-74
2023/01/12 08:59:01;;;;;;;4.80;1.70;;;;;;;20.83;41.73;99978.41;5034066;28;20484;-75
2023/01/12 09:01:27;;;;;;;6.57;1.73;;;;;;;20.82;41.80;99977.56;5038031;28;20511;-75
2023/01/12 09:03:55;;;;;;;2.92;1.27;;;;;;;20.90;41.50;99985.28;5031963;28;20051;-78
2023/01/12 09:06:27;;;;;;;2.13;1.20;;;;;;;21.87;39.67;99980.84;5037709;28;20033;-78
2023/01/12 09:08:54;;;;;;;3.10;1.52;;;;;;;22.13;38.96;99983.38;5031095;28;20544;-79
2023/01/12 09:11:20;;;;;;;3.53;1.60;;;;;;;22.18;38.77;99980.88;5032863;28;20498;-78
2023/01/12 09:13:46;;;;;;;2.30;1.00;;;;;;;22.19;38.74;99981.69;5035281;28;20029;-78
2023/01/12 09:16:14;;;;;;;3.00;1.42;;;;;;;22.17;38.80;99989.88;5038941;28;20924;-78
2023/01/12 09:18:40;;;;;;;3.10;1.48;;;;;;;22.12;38.63;99994.19;5036733;28;20152;-78
2023/01/12 09:21:14;;;;;;;2.80;1.17;;;;;;;22.00;39.12;99991.38;5032937;28;20056;-78
2023/01/12 09:23:41;;;;;;;5.25;1.55;;;;;;;21.92;39.04;99997.75;5032636;28;20414;-78
2023/01/12 09:26:09;;;;;;;3.97;1.42;;;;;;;21.81;39.53;100008.22;5038401;28;20411;-78
2023/01/12 09:28:35;;;;;;;3.58;1.48;;;;;;;21.79;39.66;100024.31;5037372;28;20040;-78
2023/01/12 09:31:06;;;;;;;3.08;1.33;;;;;;;21.73;39.77;100021.72;5033804;28;20060;-78
2023/01/12 09:33:32;;;;;;;6.32;1.73;;;;;;;21.48;40.30;100024.25;5041475;28;20060;-78
2023/01/12 09:36:00;;;;;;;2.70;1.30;;;;;;;21.31;40.48;100031.84;5039988;28;20029;-78
2023/01/12 09:38:25;;;;;;;2.53;1.25;;;;;;;21.23;40.56;100040.00;5032283;28;20466;-78
2023/01/12 09:40:51;;;;;;;2.53;1.42;;;;;;;21.04;41.16;100015.19;5040403;28;20044;-78
2023/01/12 09:48:45;;;;;;;4.10;1.60;;;;;;;21.01;41.17;100034.16;5036866;28;20500;-78
2023/01/12 09:51:23;;;;;;;4.07;1.40;;;;;;;21.02;41.20;100044.53;5039069;28;20134;-78
2023/01/12 09:53:49;;;;;;;3.22;1.35;;;;;;;21.03;41.28;100061.22;5035578;28;20048;-79
2023/01/12 09:56:23;;;;;;;3.90;1.40;;;;;;;21.04;41.20;100062.84;5044264;28;20025;-78
2023/01/12 09:59:24;;;;;;;4.50;1.70;;;;;;;21.02;41.28;100065.69;5035203;28;20041;-78
2023/01/12 10:01:51;;;;;;;4.53;1.50;;;;;;;20.91;41.23;100062.84;5039048;28;20033;-78
2023/01/12 10:04:17;;;;;;;6.40;1.70;;;;;;;20.99;41.19;100086.44;5043157;28;20053;-78
2023/01/12 10:06:43;;;;;;;3.40;1.10;;;;;;;20.94;41.19;100059.78;5035217;28;20095;-78
2023/01/12 10:09:13;;;;;;;4.22;1.60;;;;;;;20.93;41.54;100064.28;5039212;28;20815;-78
2023/01/12 10:11:58;;;;;;;4.88;1.90;;;;;;;20.86;41.39;100076.72;5039914;28;20061;-78
2023/01/12 10:14:31;;;;;;;4.18;1.88;;;;;;;20.89;41.50;100086.06;5036359;28;20128;-78
2023/01/12 10:17:16;;;;;;;3.10;1.17;;;;;;;20.90;41.41;100080.56;5035123;28;20031;-78
2023/01/12 10:20:13;;;;;;;4.25;1.75;;;;;;;20.84;41.51;100097.28;5037974;28;20044;-78
2023/01/12 10:22:41;;;;;;;5.00;1.50;;;;;;;20.88;41.43;100084.44;5036900;28;20036;-78
2023/01/12 10:25:25;;;;;;;4.82;1.42;;;;;;;20.85;41.34;100090.16;5033438;28;20033;-78
2023/01/12 10:27:54;;;;;;;5.65;1.50;;;;;;;20.82;41.38;100099.28;5037368;28;20059;-79
2023/01/12 10:30:28;;;;;;;5.85;1.52;;;;;;;20.88;41.18;100095.03;5038660;28;20033;-78
2023/01/12 10:32:54;;;;;;;2.58;1.30;;;;;;;20.86;41.34;100115.59;5033341;28;20044;-78
2023/01/12 10:35:22;;;;;;;4.60;1.58;;;;;;;20.84;41.34;100099.09;5037460;28;20037;-78
2023/01/12 10:37:51;;;;;;;3.42;1.30;;;;;;;20.87;41.35;100102.16;5033240;28;20079;-78
2023/01/12 10:40:26;;;;;;;4.23;1.40;;;;;;;20.81;41.35;100109.06;5037428;28;20418;-78
2023/01/12 10:43:30;;;;;;;5.22;1.77;;;;;;;20.81;41.52;100124.13;5032061;28;20033;-78
2023/01/12 10:46:03;;;;;;;3.78;1.60;;;;;;;20.76;41.62;100127.38;5037956;28;20067;-78
2023/01/12 10:48:30;;;;;;;5.05;2.03;;;;;;;20.78;41.46;100127.97;5041377;28;20029;-78
2023/01/12 10:51:04;;;;;;;3.58;1.60;;;;;;;20.77;41.48;100141.41;5034361;28;20037;-78
2023/01/12 10:53:49;;;;;;;2.90;1.38;;;;;;;20.73;41.49;100140.19;5033275;28;20516;-78
2023/01/12 10:56:18;;;;;;;3.78;1.23;;;;;;;20.76;41.62;100147.72;5035716;28;20049;-78
2023/01/12 10:58:52;;;;;;;4.18;1.40;;;;;;;20.77;41.54;100136.94;5032967;28;20617;-78
2023/01/12 11:01:17;;;;;;;4.22;1.50;;;;;;;20.73;41.81;100127.78;5030608;28;20510;-78
2023/01/12 11:03:43;;;;;;;2.85;1.00;;;;;;;20.71;41.63;100142.25;5035393;28;20045;-78
2023/01/12 11:06:22;;;;;;;3.60;1.33;;;;;;;20.74;41.56;100147.13;5035470;28;20049;-78
2023/01/12 11:08:48;;;;;;;4.88;1.70;;;;;;;20.77;41.61;100152.00;5036958;28;20029;-78
2023/01/12 11:11:34;;;;;;;3.97;1.33;;;;;;;20.70;41.78;100153.84;5038329;28;20869;-78
2023/01/12 11:14:02;;;;;;;2.78;1.42;;;;;;;20.69;41.53;100152.22;5029103;28;20137;-78
2023/01/12 11:16:32;;;;;;;3.45;1.42;;;;;;;20.72;41.62;100154.44;5030542;28;20032;-78
2023/01/12 11:19:00;;;;;;;3.67;1.27;;;;;;;20.70;41.65;100152.00;5034947;28;20452;-78
2023/01/12 11:21:31;;;;;;;4.32;1.80;;;;;;;20.70;41.80;100153.84;5033134;28;20520;-78
2023/01/12 11:24:10;;;;;;;2.58;1.50;;;;;;;20.64;41.71;100146.69;5030035;28;20045;-78
2023/01/12 11:26:47;;;;;;;4.55;1.65;;;;;;;20.66;41.81;100148.13;5041471;28;20044;-78
2023/01/12 11:29:38;;;;;;;3.25;1.27;;;;;;;20.63;41.80;100151.16;5036077;28;20037;-78
2023/01/12 11:32:13;;;;;;;2.83;1.38;;;;;;;20.64;41.70;100155.44;5031658;28;20129;-78
2023/01/12 11:34:53;;;;;;;3.67;1.40;;;;;;;20.56;41.85;100153.00;5037688;28;20053;-78
2023/01/12 11:37:19;;;;;;;2.58;1.08;;;;;;;20.65;41.84;100154.44;5035610;28;20478;-78
2023/01/12 11:39:51;;;;;;;3.85;1.60;;;;;;;20.66;41.71;100147.31;5039291;28;20024;-78
2023/01/12 11:45:24;;;;;;;2.90;1.50;;;;;;;20.58;41.92;100147.50;5038774;28;20041;-78
2023/01/12 11:48:01;;;;;;;5.00;1.75;;;;;;;20.62;41.93;100143.44;5038564;28;20036;-78
2023/01/12 11:50:30;;;;;;;2.78;1.25;;;;;;;20.60;41.75;100143.63;5034805;28;20028;-79
2023/01/12 11:52:57;;;;;;;3.75;1.90;;;;;;;20.62;41.95;100143.44;5031318;28;20043;-78
2023/01/12 11:55:47;;;;;;;1.92;1.17;;;;;;;20.61;41.97;100152.38;5037070;28;20060;-78
2023/01/12 11:58:36;;;;;;;3.00;1.33;;;;;;;20.64;41.80;100157.25;5038270;28;20055;-78
2023/01/12 12:01:07;;;;;;;3.35;1.65;;;;;;;20.63;41.67;100159.09;5030065;28;20033;-78
2023/01/12 12:03:50;;;;;;;4.50;1.90;;;;;;;20.59;41.92;100167.66;5033274;28;20824;-78
2023/01/12 12:06:25;;;;;;;2.63;1.45;;;;;;;20.64;41.91;100162.56;5034360;28;20037;-76
2023/01/12 12:09:02;;;;;;;4.72;1.70;;;;;;;20.62;41.83;100157.47;5038005;28;20114;-78
2023/01/12 12:11:47;;;;;;;4.47;1.80;;;;;;;20.78;41.45;100154.44;5037358;28;20048;-79
2023/01/12 12:14:46;;;;;;;2.25;1.50;;;;;;;21.18;40.45;100156.28;5038388;28;20116;-77